createdAt,value
2017-12-30T00:00:30.067Z,11.70
2017-12-30T00:03:04.955Z,11.40
2017-12-30T00:05:39.490Z,12.87
2017-12-30T00:08:14.342Z,12.10
2017-12-30T00:10:49.668Z,9.97
2017-12-30T00:13:24.863Z,14.10
2017-12-30T00:15:59.684Z,17.47
2017-12-30T00:18:34.139Z,10.00
2017-12-30T00:21:08.919Z,13.87
2017-12-30T00:23:43.829Z,12.73
2017-12-30T00:26:18.926Z,15.83
2017-12-30T00:28:54.115Z,18.03
2017-12-30T00:31:28.627Z,17.97
2017-12-30T00:34:03.065Z,19.70
2017-12-30T00:36:38.211Z,18.43
2017-12-30T00:39:13.140Z,14.00
2017-12-30T00:41:48.525Z,14.63
2017-12-30T00:44:23.788Z,21.73
2017-12-30T00:46:58.782Z,22.03
2017-12-30T00:49:33.698Z,22.77
2017-12-30T00:52:08.700Z,23.70
2017-12-30T00:54:43.677Z,16.20
2017-12-30T00:57:18.280Z,18.50
2017-12-30T00:59:53.426Z,15.37
2017-12-30T01:02:28.463Z,26.17
2017-12-30T01:05:03.419Z,14.37
2017-12-30T01:07:38.526Z,18.30
2017-12-30T01:10:13.496Z,13.10
2017-12-30T01:12:48.376Z,18.13
2017-12-30T01:15:23.104Z,15.90
2017-12-30T01:17:58.169Z,19.27
2017-12-30T01:20:33.256Z,23.33
2017-12-30T01:23:08.352Z,21.67
2017-12-30T01:25:43.536Z,27.40
2017-12-30T01:28:18.631Z,23.50
2017-12-30T01:30:54.080Z,22.73
2017-12-30T01:33:29.068Z,16.57
2017-12-30T01:36:04.290Z,18.13
2017-12-30T01:38:39.288Z,13.07
2017-12-30T01:41:14.274Z,14.30
2017-12-30T01:43:49.447Z,19.40
2017-12-30T01:46:24.592Z,17.03
2017-12-30T01:49:03.743Z,14.60
2017-12-30T01:51:38.719Z,26.73
2017-12-30T01:54:13.758Z,11.30
2017-12-30T01:56:48.846Z,16.07
2017-12-30T01:59:23.667Z,22.40
2017-12-30T02:01:58.484Z,13.33
2017-12-30T02:04:33.447Z,17.90
2017-12-30T02:07:08.663Z,15.80
2017-12-30T02:09:43.504Z,15.73
2017-12-30T02:12:18.420Z,17.13
2017-12-30T02:14:52.955Z,13.27
2017-12-30T02:17:27.904Z,17.60
2017-12-30T02:20:02.722Z,10.70
2017-12-30T02:22:37.755Z,22.03
2017-12-30T02:25:12.684Z,15.67
2017-12-30T02:27:47.515Z,16.53
2017-12-30T02:30:22.253Z,8.60
2017-12-30T02:32:57.300Z,17.90
2017-12-30T02:35:32.543Z,17.33
2017-12-30T02:38:07.382Z,13.83
2017-12-30T02:40:42.272Z,12.27
2017-12-30T02:43:17.406Z,13.97
2017-12-30T02:45:52.638Z,13.30
2017-12-30T02:48:27.559Z,8.83
2017-12-30T02:51:02.122Z,20.17
2017-12-30T02:53:37.527Z,13.60
2017-12-30T02:56:12.721Z,12.20
2017-12-30T02:58:47.851Z,15.63
2017-12-30T03:01:23.090Z,14.30
2017-12-30T03:03:57.518Z,15.67
2017-12-30T03:06:32.520Z,11.50
2017-12-30T03:09:07.592Z,14.20
2017-12-30T03:11:42.629Z,9.23
2017-12-30T03:14:17.554Z,9.27
2017-12-30T03:16:52.475Z,19.03
2017-12-30T03:19:27.212Z,12.30
2017-12-30T03:22:01.799Z,23.53
2017-12-30T03:24:36.686Z,16.40
2017-12-30T03:27:11.595Z,12.40
2017-12-30T03:29:46.639Z,15.33
2017-12-30T03:32:21.343Z,15.27
2017-12-30T03:34:56.224Z,13.37
2017-12-30T03:37:31.035Z,17.83
2017-12-30T03:40:05.971Z,8.23
2017-12-30T03:42:40.883Z,10.90
2017-12-30T03:45:15.940Z,10.20
2017-12-30T03:47:50.287Z,10.53
2017-12-30T03:50:25.263Z,10.10
2017-12-30T03:52:59.699Z,9.23
2017-12-30T03:55:34.791Z,13.37
2017-12-30T03:58:10.205Z,9.93
2017-12-30T04:00:45.287Z,9.67
2017-12-30T04:03:20.366Z,7.40
2017-12-30T04:05:55.283Z,8.67
2017-12-30T04:08:30.343Z,6.43
2017-12-30T04:11:05.111Z,7.83
2017-12-30T04:13:40.288Z,6.00
2017-12-30T04:16:15.216Z,9.03
2017-12-30T04:18:50.492Z,13.97
2017-12-30T04:21:25.192Z,6.73
2017-12-30T04:24:00.342Z,10.20
2017-12-30T04:26:35.381Z,10.50
2017-12-30T04:29:10.289Z,17.00
2017-12-30T04:31:45.052Z,8.70
2017-12-30T04:34:19.774Z,9.07
2017-12-30T04:36:54.791Z,10.07
2017-12-30T04:39:29.759Z,9.90
2017-12-30T04:42:04.782Z,10.70
2017-12-30T04:44:39.752Z,10.27
2017-12-30T04:47:14.870Z,8.93
2017-12-30T04:49:49.823Z,15.90
2017-12-30T04:52:24.632Z,8.37
2017-12-30T04:54:59.679Z,14.50
2017-12-30T04:57:34.559Z,9.93
2017-12-30T05:00:09.515Z,9.00
2017-12-30T05:02:44.728Z,11.23
2017-12-30T05:05:19.819Z,8.30
2017-12-30T05:07:54.971Z,6.37
2017-12-30T05:10:30.082Z,10.00
2017-12-30T05:13:05.203Z,6.03
2017-12-30T05:15:40.652Z,7.30
2017-12-30T05:18:15.651Z,12.73
2017-12-30T05:20:50.543Z,3.87
2017-12-30T05:23:25.847Z,8.47
2017-12-30T05:26:00.720Z,7.17
2017-12-30T05:28:37.067Z,3.10
2017-12-30T05:31:12.299Z,9.20
2017-12-30T05:33:47.312Z,7.23
2017-12-30T05:36:22.380Z,5.50
2017-12-30T05:38:57.296Z,6.97
2017-12-30T05:41:32.331Z,7.30
2017-12-30T05:44:07.125Z,1.83
2017-12-30T05:46:42.418Z,11.03
2017-12-30T05:49:17.312Z,12.20
2017-12-30T05:51:51.995Z,11.20
2017-12-30T05:54:26.804Z,7.87
2017-12-30T05:57:01.223Z,6.83
2017-12-30T05:59:36.317Z,5.00
2017-12-30T06:02:11.241Z,8.80
2017-12-30T06:04:46.122Z,7.27
2017-12-30T06:07:20.964Z,7.40
2017-12-30T06:09:56.165Z,5.10
2017-12-30T06:12:31.172Z,6.90
2017-12-30T06:15:05.962Z,3.33
2017-12-30T06:17:40.674Z,7.97
2017-12-30T06:20:15.312Z,4.20
2017-12-30T06:22:50.555Z,7.30
2017-12-30T06:25:25.602Z,2.90
2017-12-30T06:28:00.420Z,13.90
2017-12-30T06:30:35.262Z,19.47
2017-12-30T06:33:09.678Z,8.67
2017-12-30T06:35:44.186Z,2.33
2017-12-30T06:38:19.087Z,7.63
2017-12-30T06:40:54.204Z,11.00
2017-12-30T06:43:29.173Z,5.97
2017-12-30T06:46:04.880Z,8.90
2017-12-30T06:48:39.878Z,3.23
2017-12-30T06:51:14.440Z,7.70
2017-12-30T06:53:49.046Z,7.90
2017-12-30T06:56:23.990Z,7.47
2017-12-30T06:58:59.480Z,17.03
2017-12-30T07:01:34.672Z,6.17
2017-12-30T07:04:10.031Z,5.60
2017-12-30T07:06:44.727Z,7.50
2017-12-30T07:09:19.682Z,3.40
2017-12-30T07:11:54.283Z,8.10
2017-12-30T07:14:29.174Z,4.07
2017-12-30T07:17:03.656Z,8.40
2017-12-30T07:19:38.892Z,8.63
2017-12-30T07:22:13.748Z,7.80
2017-12-30T07:24:48.954Z,3.97
2017-12-30T07:27:23.818Z,6.00
2017-12-30T07:29:58.471Z,6.20
2017-12-30T07:32:33.580Z,2.80
2017-12-30T07:35:08.605Z,6.33
2017-12-30T07:37:43.295Z,11.27
2017-12-30T07:40:18.259Z,8.20
2017-12-30T07:42:53.062Z,7.13
2017-12-30T07:45:27.886Z,9.30
2017-12-30T07:48:03.132Z,6.20
2017-12-30T07:50:38.174Z,15.27
2017-12-30T07:53:13.066Z,10.67
2017-12-30T07:55:48.203Z,7.83
2017-12-30T07:58:23.391Z,4.43
2017-12-30T08:00:58.207Z,6.17
2017-12-30T08:03:33.075Z,7.63
2017-12-30T08:06:07.768Z,3.67
2017-12-30T08:08:42.452Z,4.37
2017-12-30T08:11:17.259Z,12.10
2017-12-30T08:13:53.864Z,5.80
2017-12-30T08:16:28.339Z,10.23
2017-12-30T08:19:03.110Z,7.60
2017-12-30T08:21:38.076Z,4.37
2017-12-30T08:24:12.851Z,8.37
2017-12-30T08:26:47.572Z,5.87
2017-12-30T08:29:22.288Z,7.33
2017-12-30T08:31:56.936Z,6.33
2017-12-30T08:34:32.047Z,3.37
2017-12-30T08:37:07.302Z,2.20
2017-12-30T08:39:42.269Z,5.97
2017-12-30T08:42:17.292Z,8.10
2017-12-30T08:44:52.350Z,1.57
2017-12-30T08:47:27.214Z,3.83
2017-12-30T08:50:02.217Z,5.23
2017-12-30T08:52:37.099Z,11.27
2017-12-30T08:55:12.348Z,3.20
2017-12-30T08:57:47.279Z,16.50
2017-12-30T09:00:22.720Z,7.47
2017-12-30T09:02:57.755Z,8.93
2017-12-30T09:05:32.732Z,11.20
2017-12-30T09:08:07.676Z,3.40
2017-12-30T09:10:42.803Z,3.77
2017-12-30T09:13:17.772Z,1.80
2017-12-30T09:15:52.560Z,15.67
2017-12-30T09:18:27.680Z,3.10
2017-12-30T09:21:02.452Z,1.73
2017-12-30T09:23:37.235Z,4.80
2017-12-30T09:26:12.375Z,8.90
2017-12-30T09:28:46.987Z,7.70
2017-12-30T09:31:21.761Z,9.03
2017-12-30T09:33:56.482Z,4.00
2017-12-30T09:36:31.319Z,2.37
2017-12-30T09:39:05.800Z,5.67
2017-12-30T09:41:40.882Z,2.30
2017-12-30T09:44:16.204Z,6.50
2017-12-30T09:46:51.319Z,8.63
2017-12-30T09:49:25.763Z,4.03
2017-12-30T09:52:00.615Z,5.27
2017-12-30T09:54:35.838Z,4.27
2017-12-30T09:57:10.707Z,5.00
2017-12-30T09:59:45.986Z,11.97
2017-12-30T10:02:20.827Z,7.03
2017-12-30T10:04:55.476Z,2.23
2017-12-30T10:07:30.312Z,5.70
2017-12-30T10:10:04.819Z,1.53
2017-12-30T10:12:39.475Z,12.23
2017-12-30T10:15:14.291Z,9.20
2017-12-30T10:17:49.199Z,3.63
2017-12-30T10:20:24.044Z,4.20
2017-12-30T10:22:58.986Z,6.43
2017-12-30T10:25:34.299Z,6.23
2017-12-30T10:28:09.057Z,5.70
2017-12-30T10:30:43.866Z,3.77
2017-12-30T10:33:18.716Z,2.07
2017-12-30T10:35:53.611Z,7.10
2017-12-30T10:38:28.380Z,3.83
2017-12-30T10:41:03.088Z,3.37
2017-12-30T10:43:37.819Z,5.50
2017-12-30T10:46:12.547Z,1.87
2017-12-30T10:48:47.224Z,3.03
2017-12-30T10:51:21.939Z,3.90
2017-12-30T10:53:56.812Z,2.83
2017-12-30T10:56:31.462Z,1.20
2017-12-30T10:59:06.099Z,1.90
2017-12-30T11:01:40.923Z,2.17
2017-12-30T11:04:15.557Z,1.40
2017-12-30T11:06:50.223Z,1.57
2017-12-30T11:09:24.920Z,2.40
2017-12-30T11:11:59.776Z,2.73
2017-12-30T11:14:34.657Z,2.43
2017-12-30T11:17:09.415Z,2.30
2017-12-30T11:19:44.332Z,1.40
2017-12-30T11:22:18.992Z,1.53
2017-12-30T11:24:53.891Z,1.60
2017-12-30T11:27:28.803Z,1.53
2017-12-30T11:30:03.572Z,2.27
2017-12-30T11:32:38.332Z,1.50
2017-12-30T11:35:13.523Z,1.03
2017-12-30T11:37:48.283Z,1.30
2017-12-30T11:40:23.092Z,0.97
2017-12-30T11:42:57.912Z,0.73
2017-12-30T11:45:32.684Z,1.20
2017-12-30T11:48:07.463Z,1.20
2017-12-30T11:50:42.196Z,0.83
2017-12-30T11:53:17.118Z,1.10
2017-12-30T11:55:51.799Z,0.73
2017-12-30T11:58:26.487Z,1.23
2017-12-30T12:01:01.147Z,1.03
2017-12-30T12:03:36.238Z,0.93
2017-12-30T12:06:11.183Z,0.60
2017-12-30T12:08:46.004Z,0.60
2017-12-30T12:11:21.154Z,0.90
2017-12-30T12:13:56.082Z,0.70
2017-12-30T12:16:30.853Z,1.00
2017-12-30T12:19:05.444Z,0.80
2017-12-30T12:21:40.231Z,1.03
2017-12-30T12:24:14.943Z,0.90
2017-12-30T12:26:49.848Z,0.90
2017-12-30T12:29:24.625Z,3.80
2017-12-30T12:31:59.312Z,4.87
2017-12-30T12:34:34.052Z,0.90
2017-12-30T12:37:08.851Z,1.03
2017-12-30T12:39:43.653Z,1.10
2017-12-30T12:42:18.522Z,1.30
2017-12-30T12:44:53.340Z,1.20
2017-12-30T12:47:28.067Z,2.30
2017-12-30T12:50:03.028Z,2.10
2017-12-30T12:52:37.786Z,1.97
2017-12-30T12:55:12.595Z,2.20
2017-12-30T12:57:47.500Z,3.10
2017-12-30T13:00:22.251Z,3.30
2017-12-30T13:02:57.079Z,2.80
2017-12-30T13:05:31.815Z,5.27
2017-12-30T13:08:06.783Z,5.03
2017-12-30T13:10:41.675Z,5.43
2017-12-30T13:13:16.675Z,4.83
2017-12-30T13:15:51.432Z,6.30
2017-12-30T13:18:26.576Z,5.67
2017-12-30T13:21:01.388Z,6.73
2017-12-30T13:23:36.228Z,7.70
2017-12-30T13:26:11.328Z,9.80
2017-12-30T13:28:46.292Z,10.97
2017-12-30T13:31:21.160Z,9.77
2017-12-30T13:33:56.017Z,7.60
2017-12-30T13:36:30.886Z,8.50
2017-12-30T13:39:05.092Z,11.70
2017-12-30T13:41:40.408Z,10.73
2017-12-30T13:44:15.497Z,7.70
2017-12-30T13:46:50.585Z,12.00
2017-12-30T13:49:25.679Z,14.07
2017-12-30T13:52:00.619Z,11.73
2017-12-30T13:54:35.718Z,13.87
2017-12-30T13:57:10.626Z,16.97
2017-12-30T13:59:45.727Z,13.17
2017-12-30T14:02:20.735Z,14.97
2017-12-30T14:04:55.591Z,22.63
2017-12-30T14:07:30.383Z,12.97
2017-12-30T14:10:05.451Z,16.40
2017-12-30T14:12:40.468Z,17.20
2017-12-30T14:15:15.304Z,18.93
2017-12-30T14:17:50.339Z,19.37
2017-12-30T14:20:25.163Z,30.80
2017-12-30T14:23:00.106Z,24.90
2017-12-30T14:25:35.163Z,25.43
2017-12-30T14:28:09.891Z,25.20
2017-12-30T14:30:44.679Z,19.27
2017-12-30T14:33:19.571Z,28.67
2017-12-30T14:35:54.899Z,28.80
2017-12-30T14:38:29.740Z,30.50
2017-12-30T14:41:04.863Z,33.30
2017-12-30T14:43:39.883Z,20.63
2017-12-30T14:46:15.026Z,17.90
2017-12-30T14:48:49.981Z,22.53
2017-12-30T14:51:24.990Z,22.83
2017-12-30T14:53:59.835Z,22.07
2017-12-30T14:56:34.499Z,13.90
2017-12-30T14:59:11.863Z,25.77
2017-12-30T15:01:46.274Z,23.60
2017-12-30T15:04:21.056Z,17.93
2017-12-30T15:06:56.043Z,21.30
2017-12-30T15:09:31.057Z,18.40
2017-12-30T15:12:05.927Z,25.70
2017-12-30T15:14:40.935Z,21.77
2017-12-30T15:17:15.759Z,16.70
2017-12-30T15:25:51.283Z,26.87
2017-12-30T15:28:25.985Z,24.30
2017-12-30T15:31:00.807Z,25.57
2017-12-30T15:33:35.606Z,21.40
2017-12-30T15:36:10.454Z,19.10
2017-12-30T15:38:45.287Z,30.60
2017-12-30T15:41:20.070Z,15.00
2017-12-30T15:43:55.008Z,19.43
2017-12-30T15:46:29.803Z,15.23
2017-12-30T15:49:04.590Z,26.93
2017-12-30T15:51:39.460Z,18.80
2017-12-30T15:54:14.150Z,13.27
2017-12-30T15:56:48.707Z,25.47
2017-12-30T15:59:23.658Z,17.93
2017-12-30T16:01:58.462Z,27.90
2017-12-30T16:04:33.258Z,23.47
2017-12-30T16:07:08.217Z,21.20
2017-12-30T16:09:43.107Z,27.07
2017-12-30T16:12:17.982Z,24.33
2017-12-30T16:14:52.747Z,20.43
2017-12-30T16:17:27.543Z,16.23
2017-12-30T16:20:03.430Z,9.47
2017-12-30T16:22:38.028Z,22.33
2017-12-30T16:25:12.425Z,22.77
2017-12-30T16:27:47.384Z,19.13
2017-12-30T16:30:21.802Z,20.77
2017-12-30T16:32:57.162Z,23.50
2017-12-30T16:35:31.838Z,18.83
2017-12-30T16:38:07.239Z,17.33
2017-12-30T16:40:42.253Z,35.50
2017-12-30T16:43:16.974Z,14.10
2017-12-30T16:45:51.733Z,20.27
2017-12-30T16:48:26.675Z,17.50
2017-12-30T16:51:01.458Z,13.73
2017-12-30T16:53:36.158Z,9.07
2017-12-30T16:56:10.927Z,10.90
2017-12-30T16:58:45.606Z,6.73
2017-12-30T17:01:20.556Z,13.97
2017-12-30T17:03:55.251Z,17.00
2017-12-30T17:06:29.481Z,14.67
2017-12-30T17:09:03.717Z,14.10
2017-12-30T17:11:39.019Z,22.67
2017-12-30T17:14:13.886Z,17.67
2017-12-30T17:16:48.723Z,21.90
2017-12-30T17:19:23.493Z,11.63
2017-12-30T17:21:58.235Z,17.03
2017-12-30T17:24:33.100Z,23.07
2017-12-30T17:27:07.578Z,15.73
2017-12-30T17:29:44.346Z,17.97
2017-12-30T17:32:19.476Z,12.37
2017-12-30T17:34:54.246Z,8.37
2017-12-30T17:37:29.168Z,8.90
2017-12-30T17:40:04.092Z,11.60
2017-12-30T17:42:39.035Z,7.70
2017-12-30T17:45:13.693Z,10.50
2017-12-30T17:47:48.370Z,17.57
2017-12-30T17:50:23.383Z,13.07
2017-12-30T17:52:58.180Z,9.43
2017-12-30T17:55:33.011Z,13.73
2017-12-30T17:58:07.935Z,9.93
2017-12-30T18:00:43.042Z,8.30
2017-12-30T18:03:18.034Z,14.83
2017-12-30T18:05:54.808Z,15.17
2017-12-30T18:08:29.790Z,10.83
2017-12-30T18:11:04.669Z,14.30
2017-12-30T18:13:39.556Z,12.67
2017-12-30T18:16:14.411Z,12.33
2017-12-30T18:18:49.436Z,12.63
2017-12-30T18:21:24.138Z,19.03
2017-12-30T18:23:59.024Z,21.70
2017-12-30T18:26:33.729Z,14.80
2017-12-30T18:29:08.667Z,20.93
2017-12-30T18:31:43.553Z,20.20
2017-12-30T18:34:18.238Z,13.80
2017-12-30T18:36:53.128Z,12.90
2017-12-30T18:39:27.989Z,30.27
2017-12-30T18:42:02.774Z,20.50
2017-12-30T18:44:37.749Z,10.60
2017-12-30T18:47:12.987Z,12.97
2017-12-30T18:49:47.674Z,16.13
2017-12-30T18:52:22.658Z,23.27
2017-12-30T18:54:57.146Z,16.70
2017-12-30T18:57:32.417Z,23.73
2017-12-30T19:00:07.427Z,20.07
2017-12-30T19:02:42.312Z,12.83
2017-12-30T19:05:17.116Z,12.07
2017-12-30T19:07:52.184Z,22.10
2017-12-30T19:10:26.975Z,24.00
2017-12-30T19:13:01.766Z,26.43
2017-12-30T19:15:36.553Z,21.43
2017-12-30T19:18:11.299Z,21.93
2017-12-30T19:20:46.083Z,10.23
2017-12-30T19:23:21.010Z,13.83
2017-12-30T19:25:55.858Z,16.73
2017-12-30T19:28:30.743Z,14.67
2017-12-30T19:31:05.497Z,18.67
2017-12-30T19:33:40.311Z,12.50
2017-12-30T19:36:15.086Z,26.40
2017-12-30T19:38:49.806Z,13.27
2017-12-30T19:41:24.659Z,10.20
2017-12-30T19:43:59.471Z,20.07
2017-12-30T19:46:34.394Z,24.43
2017-12-30T19:49:09.382Z,19.43
2017-12-30T19:51:44.191Z,10.70
2017-12-30T19:54:18.525Z,23.40
2017-12-30T19:56:53.489Z,16.33
2017-12-30T19:59:28.060Z,14.37
2017-12-30T20:02:02.820Z,18.47
2017-12-30T20:04:37.820Z,12.03
2017-12-30T20:07:12.728Z,10.67
2017-12-30T20:09:47.329Z,20.00
2017-12-30T20:12:22.463Z,18.50
2017-12-30T20:14:57.275Z,8.90
2017-12-30T20:17:32.253Z,14.03
2017-12-30T20:20:07.345Z,11.60
2017-12-30T20:22:42.057Z,14.87
2017-12-30T20:25:16.989Z,13.90
2017-12-30T20:27:51.745Z,13.73
2017-12-30T20:30:26.514Z,13.97
2017-12-30T20:33:01.175Z,16.47
2017-12-30T20:35:36.041Z,8.40
2017-12-30T20:38:10.890Z,13.67
2017-12-30T20:40:45.783Z,13.90
2017-12-30T20:43:20.434Z,11.67
2017-12-30T20:45:55.480Z,11.03
2017-12-30T20:48:30.466Z,17.77
2017-12-30T20:51:04.843Z,21.17
2017-12-30T20:53:40.055Z,16.70
2017-12-30T20:56:14.771Z,18.23
2017-12-30T20:58:49.810Z,23.50
2017-12-30T21:01:24.627Z,23.07
2017-12-30T21:03:59.518Z,6.50
2017-12-30T21:06:33.931Z,16.43
2017-12-30T21:09:08.362Z,16.47
2017-12-30T21:11:43.033Z,14.40
2017-12-30T21:14:17.962Z,15.93
2017-12-30T21:16:52.899Z,14.07
2017-12-30T21:19:27.685Z,17.97
2017-12-30T21:22:02.431Z,14.00
2017-12-30T21:24:37.448Z,26.03
2017-12-30T21:27:12.435Z,9.20
2017-12-30T21:29:47.511Z,16.27
2017-12-30T21:32:22.163Z,15.30
2017-12-30T21:34:57.119Z,8.20
2017-12-30T21:37:32.225Z,8.47
2017-12-30T21:40:07.047Z,12.00
2017-12-30T21:42:41.782Z,12.60
2017-12-30T21:45:16.450Z,14.93
2017-12-30T21:47:51.567Z,15.60
2017-12-30T21:50:26.225Z,18.13
2017-12-30T21:53:00.914Z,10.67
2017-12-30T21:55:35.858Z,19.57
2017-12-30T21:58:10.604Z,15.97
2017-12-30T22:00:45.377Z,14.47
2017-12-30T22:03:20.195Z,23.20
2017-12-30T22:05:55.274Z,7.90
2017-12-30T22:08:29.939Z,7.93
2017-12-30T22:11:04.931Z,9.67
2017-12-30T22:13:39.694Z,13.10
2017-12-30T22:16:14.612Z,21.70
2017-12-30T22:18:49.305Z,11.43
2017-12-30T22:21:24.203Z,16.90
2017-12-30T22:23:59.090Z,10.50
2017-12-30T22:26:33.945Z,15.60
2017-12-30T22:29:08.802Z,14.73
2017-12-30T22:31:43.586Z,23.40
2017-12-30T22:34:18.250Z,21.47
2017-12-30T22:36:53.437Z,10.77
2017-12-30T22:39:28.608Z,15.10
2017-12-30T22:42:03.530Z,24.13
2017-12-30T22:44:37.986Z,8.70
2017-12-30T22:47:13.086Z,9.83
2017-12-30T22:49:47.695Z,18.60
2017-12-30T22:52:22.638Z,16.37
2017-12-30T22:54:57.520Z,14.00
2017-12-30T22:57:32.559Z,15.33
2017-12-30T23:00:07.232Z,11.97
2017-12-30T23:02:41.750Z,15.17
2017-12-30T23:05:16.817Z,12.03
2017-12-30T23:07:51.564Z,7.80
2017-12-30T23:10:26.687Z,14.83
2017-12-30T23:13:01.306Z,15.10
2017-12-30T23:15:36.124Z,12.73
2017-12-30T23:18:11.179Z,13.63
2017-12-30T23:20:45.613Z,6.47
2017-12-30T23:23:20.727Z,13.00
2017-12-30T23:25:55.345Z,16.80
2017-12-30T23:28:30.235Z,12.10
2017-12-30T23:31:05.204Z,6.93
2017-12-30T23:33:40.075Z,14.77
2017-12-30T23:36:14.887Z,12.30
2017-12-30T23:38:49.817Z,14.43
2017-12-30T23:41:24.775Z,11.70
2017-12-30T23:43:59.661Z,23.33
2017-12-30T23:46:34.527Z,8.60
2017-12-30T23:49:09.359Z,8.67
2017-12-30T23:51:43.798Z,17.10
2017-12-30T23:54:18.941Z,11.60
2017-12-30T23:56:54.030Z,9.00
2017-12-30T23:59:28.707Z,17.33
